createdAt,value
2024-04-18T00:00:25.268Z,1.20
2024-04-18T00:02:54.560Z,0.90
2024-04-18T00:05:25.599Z,1.48
2024-04-18T00:07:59.902Z,1.63
2024-04-18T00:10:30.204Z,1.80
2024-04-18T00:13:01.632Z,0.90
2024-04-18T00:15:34.934Z,2.72
2024-04-18T00:18:07.798Z,1.63
2024-04-18T00:20:41.339Z,0.88
2024-04-18T00:23:15.158Z,2.10
2024-04-18T00:25:48.041Z,1.27
2024-04-18T00:28:24.273Z,2.38
2024-04-18T00:30:56.956Z,1.92
2024-04-18T00:33:27.332Z,2.22
2024-04-18T00:35:57.123Z,1.95
2024-04-18T00:38:27.809Z,2.03
2024-04-18T00:41:03.758Z,1.45
2024-04-18T00:43:36.739Z,1.63
2024-04-18T00:46:07.557Z,1.23
2024-04-18T00:48:38.677Z,4.90
2024-04-18T00:51:12.687Z,1.83
2024-04-18T00:53:46.285Z,1.15
2024-04-18T00:56:18.810Z,0.82
2024-04-18T00:58:58.597Z,3.83
2024-04-18T01:01:32.263Z,2.13
2024-04-18T01:04:05.985Z,3.90
2024-04-18T01:06:37.217Z,1.13
2024-04-18T01:09:08.026Z,0.90
2024-04-18T01:11:41.491Z,1.35
2024-04-18T01:14:12.192Z,3.28
2024-04-18T01:16:52.079Z,0.80
2024-04-18T01:19:20.557Z,1.13
2024-04-18T01:21:54.888Z,1.10
2024-04-18T01:24:29.376Z,1.10
2024-04-18T01:27:06.518Z,2.25
2024-04-18T01:29:36.912Z,1.48
2024-04-18T01:32:07.266Z,2.20
2024-04-18T01:34:36.156Z,1.85
2024-04-18T01:37:09.987Z,0.90
2024-04-18T01:39:44.653Z,0.70
2024-04-18T01:42:18.501Z,2.85
2024-04-18T01:44:49.461Z,1.10
2024-04-18T01:47:17.116Z,1.23
2024-04-18T01:49:53.297Z,5.15
2024-04-18T01:52:30.427Z,2.03
2024-04-18T01:55:05.892Z,1.85
2024-04-18T01:57:40.359Z,2.55
2024-04-18T02:00:11.836Z,1.50
2024-04-18T02:02:45.288Z,1.17
2024-04-18T02:05:15.175Z,1.58
2024-04-18T02:07:48.964Z,1.55
2024-04-18T02:10:24.070Z,2.45
2024-04-18T02:13:00.228Z,2.08
2024-04-18T02:15:35.206Z,1.33
2024-04-18T02:18:05.829Z,1.45
2024-04-18T02:20:39.038Z,1.88
2024-04-18T02:23:13.584Z,2.55
2024-04-18T02:25:40.646Z,2.38
2024-04-18T02:28:17.403Z,1.50
2024-04-18T02:30:49.136Z,1.33
2024-04-18T02:33:27.571Z,1.67
2024-04-18T02:36:03.012Z,3.33
2024-04-18T02:38:30.897Z,1.48
2024-04-18T02:41:10.873Z,4.88
2024-04-18T02:43:46.734Z,2.88
2024-04-18T02:46:20.001Z,1.80
2024-04-18T02:48:55.619Z,1.98
2024-04-18T02:51:26.507Z,2.30
2024-04-18T02:53:59.560Z,1.92
2024-04-18T02:56:35.045Z,1.52
2024-04-18T02:59:07.614Z,1.48
2024-04-18T03:01:38.638Z,1.70
2024-04-18T03:04:08.559Z,1.50
2024-04-18T03:06:44.675Z,1.52
2024-04-18T03:09:21.796Z,1.48
2024-04-18T03:11:54.376Z,1.45
2024-04-18T03:14:25.070Z,1.33
2024-04-18T03:17:01.429Z,2.33
2024-04-18T03:19:29.068Z,1.63
2024-04-18T03:22:00.514Z,1.73
2024-04-18T03:24:36.211Z,2.60
2024-04-18T03:27:10.144Z,1.80
2024-04-18T03:29:39.888Z,1.20
2024-04-18T03:32:15.354Z,1.08
2024-04-18T03:34:48.300Z,2.00
2024-04-18T03:37:22.123Z,1.25
2024-04-18T03:39:55.423Z,2.00
2024-04-18T03:42:31.546Z,2.58
2024-04-18T03:45:10.753Z,1.42
2024-04-18T03:47:40.852Z,2.35
2024-04-18T03:50:08.630Z,0.95
2024-04-18T03:52:39.489Z,1.10
2024-04-18T03:55:18.738Z,1.08
2024-04-18T03:57:50.493Z,0.95
2024-04-18T04:00:23.328Z,3.60
2024-04-18T04:02:53.846Z,1.10
2024-04-18T04:05:27.249Z,1.30
2024-04-18T04:08:06.855Z,1.17
2024-04-18T04:10:55.976Z,0.98
2024-04-18T04:13:26.836Z,1.10
2024-04-18T04:15:59.719Z,1.40
2024-04-18T04:18:30.163Z,2.67
2024-04-18T04:21:03.636Z,1.25
2024-04-18T04:23:37.115Z,1.73
2024-04-18T04:26:11.503Z,1.30
2024-04-18T04:28:44.738Z,1.60
2024-04-18T04:31:24.347Z,1.63
2024-04-18T04:33:55.508Z,2.97
2024-04-18T04:36:28.425Z,1.60
2024-04-18T04:38:55.768Z,2.08
2024-04-18T04:41:27.726Z,1.55
2024-04-18T04:44:02.770Z,2.83
2024-04-18T04:46:36.035Z,1.65
2024-04-18T04:49:08.645Z,1.58
2024-04-18T04:51:36.387Z,2.72
2024-04-18T04:54:08.386Z,1.67
2024-04-18T04:56:41.314Z,2.40
2024-04-18T04:59:11.769Z,1.65
2024-04-18T05:01:45.713Z,3.70
2024-04-18T05:04:15.860Z,1.55
2024-04-18T05:06:52.054Z,2.38
2024-04-18T05:09:28.675Z,1.50
2024-04-18T05:12:01.886Z,2.28
2024-04-18T05:14:33.962Z,1.77
2024-04-18T05:17:09.856Z,2.17
2024-04-18T05:19:43.218Z,2.78
2024-04-18T05:22:16.436Z,1.63
2024-04-18T05:24:47.883Z,2.70
2024-04-18T05:27:19.295Z,2.33
2024-04-18T05:30:05.264Z,3.38
2024-04-18T05:32:35.993Z,1.60
2024-04-18T05:35:09.363Z,2.45
2024-04-18T05:37:36.586Z,3.13
2024-04-18T05:40:10.718Z,1.90
2024-04-18T05:42:44.377Z,2.25
2024-04-18T05:45:20.828Z,2.20
2024-04-18T05:47:51.137Z,1.83
2024-04-18T05:50:24.880Z,2.15
2024-04-18T05:52:58.420Z,2.20
2024-04-18T05:55:29.191Z,2.70
2024-04-18T05:58:02.511Z,2.95
2024-04-18T06:00:30.748Z,4.30
2024-04-18T06:03:06.673Z,6.95
2024-04-18T06:05:36.431Z,3.35
2024-04-18T06:08:08.458Z,3.70
2024-04-18T06:10:39.223Z,3.38
2024-04-18T06:13:12.381Z,3.42
2024-04-18T06:15:46.100Z,3.60
2024-04-18T06:18:16.644Z,3.63
2024-04-18T06:20:52.540Z,4.40
2024-04-18T06:23:29.088Z,4.10
2024-04-18T06:26:02.286Z,3.83
2024-04-18T06:28:35.000Z,4.10
2024-04-18T06:31:10.706Z,3.90
2024-04-18T06:33:41.561Z,3.65
2024-04-18T06:36:15.178Z,4.43
2024-04-18T06:38:46.507Z,3.25
2024-04-18T06:41:14.645Z,3.50
2024-04-18T06:43:50.601Z,2.90
2024-04-18T06:46:22.609Z,2.95
2024-04-18T06:48:55.901Z,2.42
2024-04-18T06:51:26.675Z,2.00
2024-04-18T06:53:57.858Z,2.10
2024-04-18T06:56:30.794Z,2.33
2024-04-18T06:59:04.030Z,1.58
2024-04-18T07:01:40.577Z,1.98
2024-04-18T07:04:07.803Z,2.13
2024-04-18T07:06:44.140Z,1.88
2024-04-18T07:09:23.568Z,1.83
2024-04-18T07:11:56.360Z,1.70
2024-04-18T07:14:31.339Z,1.30
2024-04-18T07:17:00.851Z,1.83
2024-04-18T07:19:35.807Z,2.10
2024-04-18T07:22:07.112Z,2.33
2024-04-18T07:24:34.363Z,2.28
2024-04-18T07:27:05.097Z,1.95
2024-04-18T07:29:38.291Z,1.30
2024-04-18T07:32:12.279Z,2.15
2024-04-18T07:34:45.871Z,1.67
2024-04-18T07:37:16.580Z,1.35
2024-04-18T07:39:47.175Z,1.80
2024-04-18T07:42:20.257Z,1.38
2024-04-18T07:44:48.603Z,1.45
2024-04-18T07:47:17.988Z,2.33
2024-04-18T07:49:53.715Z,1.80
2024-04-18T07:52:26.776Z,1.90
2024-04-18T07:55:04.467Z,4.35
2024-04-18T07:57:39.542Z,3.22
2024-04-18T08:00:08.351Z,2.60
2024-04-18T08:02:44.816Z,2.50
2024-04-18T08:05:20.759Z,3.63
2024-04-18T08:07:58.577Z,2.42
2024-04-18T08:10:34.076Z,2.55
2024-04-18T08:13:15.658Z,2.25
2024-04-18T08:18:25.997Z,4.38
2024-04-18T08:21:00.896Z,2.20
2024-04-18T08:23:37.282Z,2.47
2024-04-18T08:26:05.605Z,4.70
2024-04-18T08:28:36.094Z,4.50
2024-04-18T08:31:09.246Z,3.45
2024-04-18T08:33:47.064Z,2.20
2024-04-18T08:36:26.863Z,5.00
2024-04-18T08:38:57.862Z,4.47
2024-04-18T08:41:28.164Z,4.47
2024-04-18T08:44:06.058Z,3.80
2024-04-18T08:46:38.231Z,3.83
2024-04-18T08:49:15.653Z,4.75
2024-04-18T08:51:49.688Z,4.03
2024-04-18T08:54:20.217Z,4.07
2024-04-18T08:56:54.510Z,3.28
2024-04-18T08:59:24.486Z,3.83
2024-04-18T09:01:54.841Z,4.35
2024-04-18T09:04:24.633Z,3.92
2024-04-18T09:06:59.137Z,3.53
2024-04-18T09:09:35.671Z,2.92
2024-04-18T09:12:09.387Z,5.18
2024-04-18T09:14:45.310Z,4.25
2024-04-18T09:17:20.742Z,3.60
2024-04-18T09:19:53.899Z,1.85
2024-04-18T09:22:23.751Z,0.70
2024-04-18T09:24:55.114Z,0.50
2024-04-18T09:27:26.617Z,2.70
2024-04-18T09:29:59.461Z,5.05
2024-04-18T09:32:33.267Z,4.28
2024-04-18T09:35:07.625Z,4.15
2024-04-18T09:37:46.993Z,4.43
2024-04-18T09:40:26.527Z,3.72
2024-04-18T09:43:36.062Z,4.75
2024-04-18T09:46:07.623Z,4.95
2024-04-18T09:48:42.586Z,5.32
2024-04-18T09:51:16.883Z,5.43
2024-04-18T09:53:45.822Z,5.78
2024-04-18T09:56:13.177Z,6.18
2024-04-18T09:58:46.844Z,5.00
2024-04-18T10:01:17.896Z,2.05
2024-04-18T10:03:49.825Z,6.57
2024-04-18T10:06:25.569Z,6.13
2024-04-18T10:08:57.491Z,5.97
2024-04-18T10:11:33.984Z,5.88
2024-04-18T10:14:05.289Z,8.30
2024-04-18T10:16:32.935Z,5.38
2024-04-18T10:19:18.034Z,5.47
2024-04-18T10:22:17.742Z,7.20
2024-04-18T10:24:53.343Z,7.90
2024-04-18T10:27:25.481Z,5.85
2024-04-18T10:29:57.664Z,11.52
2024-04-18T10:32:28.577Z,7.38
2024-04-18T10:35:10.770Z,4.80
2024-04-18T10:37:42.179Z,4.60
2024-04-18T10:40:19.616Z,5.07
2024-04-18T10:42:53.202Z,4.38
2024-04-18T10:45:26.399Z,5.88
2024-04-18T10:48:03.487Z,4.68
2024-04-18T10:50:38.422Z,4.05
2024-04-18T10:53:09.275Z,4.85
2024-04-18T10:55:39.999Z,4.45
2024-04-18T10:58:21.649Z,4.28
2024-04-18T11:00:53.385Z,4.70
2024-04-18T11:03:23.976Z,4.30
2024-04-18T11:05:56.637Z,3.53
2024-04-18T11:08:28.530Z,3.47
2024-04-18T11:11:00.456Z,4.50
2024-04-18T11:13:32.149Z,3.50
2024-04-18T11:16:02.446Z,2.65
2024-04-18T11:18:34.563Z,3.72
2024-04-18T11:21:15.564Z,2.80
2024-04-18T11:23:50.020Z,2.60
2024-04-18T11:26:31.684Z,2.83
2024-04-18T11:29:05.474Z,3.03
2024-04-18T11:31:38.223Z,2.22
2024-04-18T11:34:07.395Z,4.60
2024-04-18T11:36:45.555Z,2.00
2024-04-18T11:39:16.062Z,3.05
2024-04-18T11:41:49.067Z,1.88
2024-04-18T11:44:20.309Z,1.98
2024-04-18T11:46:57.904Z,3.17
2024-04-18T11:49:30.727Z,2.40
2024-04-18T11:52:04.000Z,2.05
2024-04-18T11:54:37.077Z,4.75
2024-04-18T11:57:10.350Z,1.70
2024-04-18T11:59:45.077Z,0.80
2024-04-18T12:02:21.022Z,0.40
2024-04-18T12:04:50.949Z,2.33
2024-04-18T12:07:21.945Z,2.80
2024-04-18T12:09:56.236Z,2.65
2024-04-18T12:12:29.332Z,1.92
2024-04-18T12:14:59.918Z,2.60
2024-04-18T12:17:33.401Z,4.13
2024-04-18T12:20:06.253Z,0.55
2024-04-18T12:22:33.997Z,1.73
2024-04-18T12:25:05.939Z,3.35
2024-04-18T12:27:39.035Z,3.42
2024-04-18T12:30:19.307Z,3.25
2024-04-18T12:32:55.547Z,3.67
2024-04-18T12:35:28.001Z,3.65
2024-04-18T12:37:59.437Z,3.17
2024-04-18T12:40:30.971Z,3.03
2024-04-18T12:43:07.100Z,2.25
2024-04-18T12:45:38.660Z,2.33
2024-04-18T12:48:13.851Z,2.00
2024-04-18T12:50:46.187Z,1.48
2024-04-18T12:53:13.878Z,2.42
2024-04-18T12:55:47.159Z,2.10
2024-04-18T12:58:19.797Z,2.38
2024-04-18T13:00:58.112Z,2.72
2024-04-18T13:03:29.368Z,2.35
2024-04-18T13:05:59.942Z,1.50
2024-04-18T13:08:30.076Z,1.77
2024-04-18T13:11:08.645Z,1.55
2024-04-18T13:13:39.047Z,1.20
2024-04-18T13:16:12.357Z,0.88
2024-04-18T13:18:45.877Z,1.50
2024-04-18T13:21:16.575Z,4.78
2024-04-18T13:23:49.280Z,1.00
2024-04-18T13:26:19.643Z,1.20
2024-04-18T13:28:49.891Z,1.10
2024-04-18T13:31:21.330Z,1.60
2024-04-18T13:33:57.502Z,1.27
2024-04-18T13:36:31.876Z,2.03
2024-04-18T13:38:59.570Z,1.60
2024-04-18T13:41:29.466Z,6.18
2024-04-18T13:44:02.616Z,1.35
2024-04-18T13:46:35.501Z,1.40
2024-04-18T13:49:07.515Z,2.45
2024-04-18T13:51:37.675Z,1.45
2024-04-18T13:54:08.347Z,0.90
2024-04-18T13:56:38.582Z,1.48
2024-04-18T13:59:08.654Z,1.10
2024-04-18T14:01:44.204Z,1.95
2024-04-18T14:04:17.633Z,1.20
2024-04-18T14:06:48.779Z,1.02
2024-04-18T14:09:25.420Z,3.70
2024-04-18T14:11:59.805Z,1.40
2024-04-18T14:14:32.676Z,1.63
2024-04-18T14:17:20.951Z,1.15
2024-04-18T14:19:51.609Z,1.02
2024-04-18T14:22:27.609Z,2.08
2024-04-18T14:25:01.125Z,2.60
2024-04-18T14:27:28.995Z,1.88
2024-04-18T14:29:56.056Z,1.23
2024-04-18T14:32:30.074Z,3.35
2024-04-18T14:35:02.863Z,1.20
2024-04-18T14:37:35.846Z,0.98
2024-04-18T14:40:10.116Z,0.80
2024-04-18T14:42:43.054Z,1.05
2024-04-18T14:45:12.878Z,1.40
2024-04-18T14:47:42.787Z,0.80
2024-04-18T14:50:18.640Z,1.65
2024-04-18T14:52:49.533Z,0.90
2024-04-18T14:55:29.257Z,1.38
2024-04-18T14:57:59.895Z,0.93
2024-04-18T15:00:30.153Z,0.47
2024-04-18T15:03:00.779Z,2.00
2024-04-18T15:05:37.421Z,1.85
2024-04-18T15:08:10.440Z,2.42
2024-04-18T15:10:43.783Z,1.00
2024-04-18T15:13:17.024Z,0.95
2024-04-18T15:15:47.142Z,0.90
2024-04-18T15:18:17.828Z,1.20
2024-04-18T15:20:53.096Z,1.50
2024-04-18T15:23:25.343Z,2.00
2024-04-18T15:25:57.889Z,1.55
2024-04-18T15:28:31.787Z,1.10
2024-04-18T15:31:04.372Z,1.27
2024-04-18T15:33:36.951Z,1.42
2024-04-18T15:36:08.133Z,1.27
2024-04-18T15:38:39.487Z,0.85
2024-04-18T15:41:15.472Z,1.35
2024-04-18T15:43:45.539Z,1.20
2024-04-18T15:46:18.694Z,1.70
2024-04-18T15:48:51.775Z,1.13
2024-04-18T15:51:23.312Z,1.27
2024-04-18T15:53:52.569Z,1.10
2024-04-18T15:56:23.137Z,1.10
2024-04-18T15:58:58.278Z,2.63
2024-04-18T16:01:36.472Z,1.63
2024-04-18T16:04:08.245Z,2.75
2024-04-18T16:06:38.565Z,0.93
2024-04-18T16:09:14.001Z,1.67
2024-04-18T16:11:47.739Z,1.20
2024-04-18T16:14:26.638Z,2.33
2024-04-18T16:16:57.699Z,1.00
2024-04-18T16:19:29.804Z,1.30
2024-04-18T16:22:05.561Z,3.40
2024-04-18T16:24:41.803Z,3.55
2024-04-18T16:27:17.004Z,1.35
2024-04-18T16:29:46.599Z,1.20
2024-04-18T16:32:18.787Z,3.13
2024-04-18T16:34:50.703Z,1.25
2024-04-18T16:37:25.308Z,1.25
2024-04-18T16:39:56.256Z,1.13
2024-04-18T16:42:29.956Z,1.33
2024-04-18T16:45:02.993Z,1.58
2024-04-18T16:47:36.593Z,2.00
2024-04-18T16:50:07.700Z,3.60
2024-04-18T16:52:40.297Z,1.45
2024-04-18T16:55:13.979Z,3.90
2024-04-18T16:57:46.360Z,1.75
2024-04-18T17:00:17.145Z,1.40
2024-04-18T17:02:52.607Z,1.63
2024-04-18T17:05:25.564Z,1.80
2024-04-18T17:07:57.078Z,1.33
2024-04-18T17:10:29.213Z,1.17
2024-04-18T17:13:01.402Z,1.08
2024-04-18T17:15:32.101Z,2.15
2024-04-18T17:18:06.513Z,1.33
2024-04-18T17:20:42.247Z,0.85
2024-04-18T17:23:14.862Z,4.30
2024-04-18T17:25:47.098Z,2.35
2024-04-18T17:28:21.443Z,1.77
2024-04-18T17:30:55.318Z,2.85
2024-04-18T17:33:26.367Z,0.98
2024-04-18T17:36:02.408Z,2.38
2024-04-18T17:38:42.931Z,0.80
2024-04-18T17:41:21.725Z,1.48
2024-04-18T17:43:55.452Z,1.10
2024-04-18T17:46:31.691Z,1.52
2024-04-18T17:49:04.109Z,2.15
2024-04-18T17:51:34.584Z,0.98
2024-04-18T17:54:10.849Z,0.75
2024-04-18T17:56:44.874Z,1.00
2024-04-18T17:59:15.977Z,1.02
2024-04-18T18:01:50.237Z,0.80
2024-04-18T18:04:19.941Z,2.60
2024-04-18T18:06:50.687Z,2.20
2024-04-18T18:09:23.714Z,2.30
2024-04-18T18:12:04.794Z,1.20
2024-04-18T18:14:35.506Z,0.85
2024-04-18T18:17:08.957Z,1.95
2024-04-18T18:19:44.226Z,1.27
2024-04-18T18:22:14.274Z,0.90
2024-04-18T18:24:43.911Z,1.15
2024-04-18T18:27:20.299Z,1.58
2024-04-18T18:29:57.088Z,1.00
2024-04-18T18:32:33.186Z,0.73
2024-04-18T18:35:11.379Z,0.98
2024-04-18T18:37:49.665Z,1.73
2024-04-18T18:40:19.326Z,0.70
2024-04-18T18:42:48.227Z,1.27
2024-04-18T18:45:28.077Z,1.00
2024-04-18T18:47:58.798Z,0.60
2024-04-18T18:50:35.138Z,2.53
2024-04-18T18:53:08.458Z,0.90
2024-04-18T18:55:41.619Z,1.27
2024-04-18T18:58:14.794Z,0.85
2024-04-18T19:00:44.785Z,0.93
2024-04-18T19:03:21.145Z,1.15
2024-04-18T19:05:52.509Z,0.93
2024-04-18T19:08:26.047Z,2.20
2024-04-18T19:11:02.544Z,2.30
2024-04-18T19:13:37.217Z,1.20
2024-04-18T19:16:07.998Z,3.25
2024-04-18T19:18:37.063Z,3.97
2024-04-18T19:21:09.097Z,7.38
2024-04-18T19:23:42.337Z,3.28
2024-04-18T19:26:13.632Z,2.58
2024-04-18T19:28:45.625Z,3.45
2024-04-18T19:31:23.779Z,3.25
2024-04-18T19:33:57.008Z,2.58
2024-04-18T19:36:29.746Z,1.58
2024-04-18T19:39:03.806Z,1.00
2024-04-18T19:41:32.983Z,1.00
2024-04-18T19:44:07.239Z,2.25
2024-04-18T19:46:40.392Z,2.50
2024-04-18T19:49:12.760Z,1.77
2024-04-18T19:51:42.209Z,1.45
2024-04-18T19:54:12.594Z,1.58
2024-04-18T19:56:45.365Z,1.20
2024-04-18T19:59:17.172Z,1.33
2024-04-18T20:01:47.222Z,1.40
2024-04-18T20:04:18.457Z,3.00
2024-04-18T20:06:52.291Z,1.10
2024-04-18T20:09:20.195Z,2.85
2024-04-18T20:11:59.509Z,1.70
2024-04-18T20:14:36.417Z,1.30
2024-04-18T20:17:09.215Z,1.23
2024-04-18T20:19:44.338Z,1.45
2024-04-18T20:22:17.201Z,0.90
2024-04-18T20:24:48.618Z,1.38
2024-04-18T20:27:22.293Z,1.10
2024-04-18T20:29:55.383Z,2.17
2024-04-18T20:32:31.826Z,0.98
2024-04-18T20:35:02.420Z,3.10
2024-04-18T20:37:37.043Z,1.20
2024-04-18T20:40:10.694Z,1.20
2024-04-18T20:42:43.790Z,3.22
2024-04-18T20:45:11.154Z,1.40
2024-04-18T20:47:44.110Z,2.15
2024-04-18T20:50:14.587Z,1.20
2024-04-18T20:52:50.430Z,1.55
2024-04-18T20:55:23.906Z,2.90
2024-04-18T20:57:57.117Z,1.17
2024-04-18T21:00:27.822Z,2.28
2024-04-18T21:02:58.313Z,1.05
2024-04-18T21:05:31.690Z,1.85
2024-04-18T21:08:11.192Z,1.15
2024-04-18T21:10:44.028Z,1.20
2024-04-18T21:13:17.830Z,0.90
2024-04-18T21:15:48.636Z,2.20
2024-04-18T21:18:25.972Z,1.05
2024-04-18T21:20:53.607Z,1.90
2024-04-18T21:23:25.262Z,1.45
2024-04-18T21:26:00.842Z,1.20
2024-04-18T21:28:32.885Z,1.40
2024-04-18T21:31:05.793Z,1.30
2024-04-18T21:33:41.545Z,1.50
2024-04-18T21:36:14.784Z,1.20
2024-04-18T21:39:00.550Z,3.22
2024-04-18T21:41:38.234Z,1.00
2024-04-18T21:44:16.302Z,1.92
2024-04-18T21:46:47.837Z,1.65
2024-04-18T21:49:22.368Z,1.02
2024-04-18T21:51:52.938Z,2.53
2024-04-18T21:54:23.342Z,1.50
2024-04-18T21:56:54.193Z,1.38
2024-04-18T21:59:30.562Z,1.35
2024-04-18T22:02:04.872Z,1.77
2024-04-18T22:04:37.469Z,3.80
2024-04-18T22:07:13.782Z,3.65
2024-04-18T22:09:42.720Z,1.13
2024-04-18T22:12:18.691Z,5.68
2024-04-18T22:14:51.462Z,2.00
2024-04-18T22:17:22.371Z,1.65
2024-04-18T22:19:58.097Z,1.48
2024-04-18T22:22:28.403Z,1.73
2024-04-18T22:25:01.263Z,1.50
2024-04-18T22:27:34.416Z,2.28
2024-04-18T22:30:05.235Z,1.25
2024-04-18T22:32:35.507Z,1.27
2024-04-18T22:35:11.892Z,1.10
2024-04-18T22:37:44.336Z,1.50
2024-04-18T22:40:19.846Z,1.30
2024-04-18T22:42:53.208Z,1.52
2024-04-18T22:45:26.690Z,2.72
2024-04-18T22:48:00.041Z,3.22
2024-04-18T22:50:37.156Z,1.23
2024-04-18T22:53:07.096Z,2.28
2024-04-18T22:55:34.415Z,2.33
2024-04-18T22:58:12.171Z,1.75
2024-04-18T23:00:47.728Z,2.97
2024-04-18T23:03:22.530Z,1.85
2024-04-18T23:05:53.061Z,1.70
2024-04-18T23:08:27.257Z,2.58
2024-04-18T23:10:58.022Z,2.05
2024-04-18T23:13:25.755Z,2.90
2024-04-18T23:15:55.856Z,1.77
2024-04-18T23:18:28.972Z,2.25
2024-04-18T23:21:04.995Z,2.00
2024-04-18T23:23:37.550Z,2.85
2024-04-18T23:26:07.396Z,2.60
2024-04-18T23:28:41.074Z,1.67
2024-04-18T23:31:12.989Z,1.45
2024-04-18T23:33:46.153Z,1.80
2024-04-18T23:36:17.175Z,1.77
2024-04-18T23:38:47.171Z,2.85
2024-04-18T23:41:17.800Z,1.40
2024-04-18T23:43:48.372Z,1.80
2024-04-18T23:46:17.812Z,3.35
2024-04-18T23:48:47.509Z,1.25
2024-04-18T23:51:22.204Z,1.92
2024-04-18T23:53:53.187Z,1.33
2024-04-18T23:56:23.584Z,2.13
2024-04-18T23:58:53.279Z,1.77
